createdAt,value
2019-04-20T00:01:31.297Z,41.52
2019-04-20T00:05:33.030Z,41.33
2019-04-20T00:09:45.562Z,41.56
2019-04-20T00:13:57.694Z,41.65
2019-04-20T00:18:01.842Z,41.62
2019-04-20T00:22:14.898Z,41.58
2019-04-20T00:26:57.752Z,41.77
2019-04-20T00:30:53.371Z,41.82
2019-04-20T00:34:47.133Z,42.34
2019-04-20T00:38:56.882Z,42.32
2019-04-20T00:43:02.707Z,42.16
2019-04-20T00:47:19.915Z,41.77
2019-04-20T00:51:35.147Z,41.70
2019-04-20T00:55:27.326Z,41.98
2019-04-20T00:59:55.304Z,42.46
2019-04-20T01:04:04.570Z,42.18
2019-04-20T01:08:12.982Z,41.77
2019-04-20T01:12:24.639Z,41.39
2019-04-20T01:16:36.627Z,41.01
2019-04-20T01:20:38.850Z,41.66
2019-04-20T01:24:48.272Z,41.60
2019-04-20T01:29:07.720Z,41.27
2019-04-20T01:33:17.657Z,41.04
2019-04-20T01:37:27.452Z,41.12
2019-04-20T01:41:20.316Z,41.26
2019-04-20T01:45:31.326Z,41.22
2019-04-20T01:49:37.428Z,41.35
2019-04-20T01:53:59.963Z,41.55
2019-04-20T01:58:39.490Z,41.61
2019-04-20T02:02:43.621Z,41.91
2019-04-20T02:06:48.840Z,41.72
2019-04-20T02:10:56.813Z,42.58
2019-04-20T02:15:04.025Z,43.00
2019-04-20T02:19:24.227Z,42.79
2019-04-20T02:23:28.129Z,42.70
2019-04-20T02:27:34.314Z,42.60
2019-04-20T02:44:49.978Z,43.90
2019-04-20T02:49:01.302Z,44.27
2019-04-20T02:53:06.182Z,44.53
2019-04-20T02:57:10.690Z,44.85
2019-04-20T03:01:40.765Z,44.98
2019-04-20T03:05:39.261Z,45.07
2019-04-20T03:09:58.419Z,44.98
2019-04-20T03:14:03.661Z,45.20
2019-04-20T03:18:17.942Z,45.42
2019-04-20T03:22:36.495Z,45.63
2019-04-20T03:26:40.230Z,45.31
2019-04-20T03:35:29.745Z,45.96
2019-04-20T03:39:17.644Z,46.24
2019-04-20T03:43:09.871Z,46.32
2019-04-20T03:47:26.842Z,46.23
2019-04-20T03:51:47.113Z,45.99
2019-04-20T03:55:52.859Z,46.32
2019-04-20T04:00:26.297Z,46.51
2019-04-20T04:04:39.010Z,46.70
2019-04-20T04:08:32.919Z,46.67
2019-04-20T04:13:11.849Z,46.93
2019-04-20T04:17:25.239Z,46.86
2019-04-20T04:21:44.746Z,47.01
2019-04-20T04:25:55.730Z,47.08
2019-04-20T04:30:01.861Z,47.01
2019-04-20T04:34:10.751Z,47.42
2019-04-20T04:38:24.027Z,47.62
2019-04-20T04:42:28.204Z,47.52
2019-04-20T04:46:18.577Z,47.43
2019-04-20T04:50:29.529Z,47.35
2019-04-20T04:54:45.389Z,47.62
2019-04-20T04:58:43.090Z,47.38
2019-04-20T05:02:54.805Z,47.73
2019-04-20T05:07:11.703Z,47.98
2019-04-20T05:11:06.926Z,48.04
2019-04-20T05:15:31.091Z,48.01
2019-04-20T05:19:40.973Z,48.23
2019-04-20T05:23:55.421Z,47.97
2019-04-20T05:28:05.273Z,48.11
2019-04-20T05:32:05.938Z,47.93
2019-04-20T05:36:29.620Z,47.58
2019-04-20T05:40:38.941Z,47.80
2019-04-20T05:44:46.084Z,47.78
2019-04-20T05:48:56.210Z,47.77
2019-04-20T05:53:07.739Z,47.74
2019-04-20T05:57:22.571Z,47.74
2019-04-20T06:01:22.822Z,47.54
2019-04-20T06:05:32.347Z,47.31
2019-04-20T06:09:39.749Z,47.16
2019-04-20T06:14:03.763Z,46.81
2019-04-20T06:18:20.260Z,46.56
2019-04-20T06:22:57.481Z,46.22
2019-04-20T06:27:08.200Z,45.72
2019-04-20T06:30:57.800Z,45.14
2019-04-20T06:35:25.985Z,45.85
2019-04-20T06:39:26.008Z,45.89
2019-04-20T06:43:31.496Z,45.30
2019-04-20T06:47:46.685Z,44.71
2019-04-20T06:51:59.363Z,44.34
2019-04-20T06:56:10.012Z,43.67
2019-04-20T07:04:41.936Z,42.80
2019-04-20T07:08:51.045Z,42.45
2019-04-20T07:12:40.874Z,42.15
2019-04-20T07:16:57.372Z,41.39
2019-04-20T07:21:16.402Z,41.30
2019-04-20T07:25:23.139Z,41.13
2019-04-20T07:29:36.827Z,40.83
2019-04-20T07:33:40.225Z,40.74
2019-04-20T07:42:00.663Z,40.53
2019-04-20T07:46:10.389Z,39.30
2019-04-20T07:50:07.495Z,38.89
2019-04-20T07:54:28.291Z,38.05
2019-04-20T07:58:22.753Z,38.34
2019-04-20T08:03:12.830Z,37.54
2019-04-20T08:06:56.712Z,37.69
2019-04-20T08:11:13.790Z,37.59
2019-04-20T08:15:42.907Z,37.54
2019-04-20T08:19:36.734Z,36.91
2019-04-20T08:23:44.451Z,37.30
2019-04-20T08:27:51.162Z,37.00
2019-04-20T08:32:38.723Z,36.39
2019-04-20T08:36:51.070Z,35.51
2019-04-20T08:40:57.416Z,34.40
2019-04-20T08:45:07.204Z,33.60
2019-04-20T08:49:22.031Z,34.04
2019-04-20T08:53:27.598Z,32.50
2019-04-20T08:57:11.671Z,31.52
2019-04-20T09:01:23.655Z,30.83
2019-04-20T09:05:40.038Z,29.79
2019-04-20T09:10:00.562Z,29.91
2019-04-20T09:13:51.551Z,28.22
2019-04-20T09:18:00.982Z,27.85
2019-04-20T09:22:34.027Z,28.41
2019-04-20T09:26:48.946Z,27.63
2019-04-20T09:30:54.282Z,26.79
2019-04-20T09:35:22.152Z,26.95
2019-04-20T09:39:37.812Z,26.54
2019-04-20T09:43:41.362Z,25.56
2019-04-20T09:47:51.884Z,25.68
2019-04-20T09:52:13.265Z,25.97
2019-04-20T09:56:19.835Z,26.52
2019-04-20T10:00:35.679Z,25.86
2019-04-20T10:04:25.787Z,25.47
2019-04-20T10:08:39.960Z,25.71
2019-04-20T10:12:41.873Z,24.90
2019-04-20T10:16:49.704Z,24.77
2019-04-20T10:20:57.909Z,25.29
2019-04-20T10:25:06.546Z,24.93
2019-04-20T10:29:13.341Z,26.26
2019-04-20T10:33:20.074Z,24.17
2019-04-20T10:37:33.699Z,25.05
2019-04-20T10:41:48.962Z,23.57
2019-04-20T10:45:48.933Z,23.24
2019-04-20T10:49:56.591Z,23.97
2019-04-20T10:54:04.510Z,24.16
2019-04-20T10:58:11.741Z,25.20
2019-04-20T11:02:19.501Z,24.11
2019-04-20T11:06:26.880Z,23.85
2019-04-20T11:10:49.177Z,22.11
2019-04-20T11:14:44.412Z,23.44
2019-04-20T11:18:51.386Z,22.33
2019-04-20T11:22:58.230Z,22.53
2019-04-20T11:27:05.067Z,20.62
2019-04-20T11:31:12.441Z,21.67
2019-04-20T11:35:25.731Z,21.78
2019-04-20T11:39:29.129Z,21.54
2019-04-20T11:43:35.950Z,20.75
2019-04-20T11:47:43.246Z,20.83
2019-04-20T11:51:50.135Z,19.81
2019-04-20T11:55:58.378Z,19.42
2019-04-20T12:00:06.130Z,18.87
2019-04-20T12:04:26.113Z,17.20
2019-04-20T12:08:23.056Z,15.62
2019-04-20T12:12:38.018Z,15.57
2019-04-20T12:16:39.458Z,15.30
2019-04-20T12:20:47.070Z,16.60
2019-04-20T12:24:54.152Z,16.81
2019-04-20T12:29:01.457Z,15.95
2019-04-20T12:33:09.481Z,15.63
2019-04-20T12:37:16.375Z,16.24
2019-04-20T12:41:34.475Z,16.42
2019-04-20T12:45:33.498Z,16.80
2019-04-20T12:49:41.360Z,16.58
2019-04-20T12:53:48.730Z,16.44
2019-04-20T12:57:56.698Z,17.18
2019-04-20T13:02:05.168Z,16.34
2019-04-20T13:06:12.157Z,16.28
2019-04-20T13:10:19.496Z,15.89
2019-04-20T13:15:16.583Z,16.20
2019-04-20T13:19:23.557Z,16.02
2019-04-20T13:23:31.022Z,16.47
2019-04-20T13:27:38.863Z,16.30
2019-04-20T13:31:48.222Z,16.32
2019-04-20T13:35:54.382Z,15.96
2019-04-20T13:40:01.169Z,15.70
2019-04-20T13:44:09.428Z,15.77
2019-04-20T13:48:17.004Z,15.28
2019-04-20T13:52:24.721Z,15.74
2019-04-20T13:56:32.491Z,15.38
2019-04-20T14:01:08.478Z,14.90
2019-04-20T14:05:16.975Z,14.56
2019-04-20T14:09:25.581Z,15.18
2019-04-20T14:13:38.600Z,15.26
2019-04-20T14:17:41.387Z,15.01
2019-04-20T14:21:48.227Z,14.52
2019-04-20T14:25:54.895Z,15.45
2019-04-20T14:30:01.639Z,15.00
2019-04-20T14:34:10.970Z,15.07
2019-04-20T14:38:17.723Z,15.71
2019-04-20T14:42:34.740Z,15.05
2019-04-20T14:46:33.599Z,15.32
2019-04-20T14:50:41.373Z,15.43
2019-04-20T14:54:48.219Z,15.28
2019-04-20T14:59:07.644Z,15.20
2019-04-20T15:03:43.770Z,16.16
2019-04-20T15:07:50.969Z,15.88
2019-04-20T15:11:58.917Z,16.42
2019-04-20T15:16:06.712Z,16.66
2019-04-20T15:20:31.369Z,16.54
2019-04-20T15:24:38.072Z,16.95
2019-04-20T15:28:46.169Z,17.27
2019-04-20T15:32:52.963Z,17.48
2019-04-20T15:37:00.188Z,17.47
2019-04-20T15:41:10.114Z,17.86
2019-04-20T15:45:19.016Z,18.87
2019-04-20T15:49:26.345Z,19.08
2019-04-20T15:53:33.492Z,19.35
2019-04-20T15:57:40.688Z,18.94
2019-04-20T16:01:51.376Z,18.83
2019-04-20T16:06:01.207Z,19.18
2019-04-20T16:10:09.505Z,19.41
2019-04-20T16:14:17.488Z,20.89
2019-04-20T16:18:25.145Z,20.64
2019-04-20T16:22:32.205Z,20.92
2019-04-20T16:26:44.168Z,21.29
2019-04-20T16:30:51.717Z,21.29
2019-04-20T16:34:58.454Z,21.46
2019-04-20T16:39:09.120Z,22.05
2019-04-20T16:43:24.443Z,22.29
2019-04-20T16:47:26.025Z,22.26
2019-04-20T16:51:32.894Z,22.62
2019-04-20T16:55:40.876Z,22.88
2019-04-20T16:59:52.644Z,22.71
2019-04-20T17:04:03.902Z,22.54
2019-04-20T17:08:06.876Z,22.82
2019-04-20T17:12:13.761Z,23.12
2019-04-20T17:16:21.757Z,23.04
2019-04-20T17:20:28.850Z,23.09
2019-04-20T17:24:35.797Z,23.00
2019-04-20T17:29:01.895Z,23.19
2019-04-20T17:33:10.428Z,23.67
2019-04-20T17:37:18.489Z,23.64
2019-04-20T17:41:44.430Z,23.68
2019-04-20T17:45:45.641Z,23.75
2019-04-20T17:50:02.090Z,24.14
2019-04-20T17:54:22.169Z,24.90
2019-04-20T17:58:32.960Z,26.05
2019-04-20T18:03:00.636Z,26.81
2019-04-20T18:07:04.333Z,27.17
2019-04-20T18:11:08.004Z,27.62
2019-04-20T18:15:29.538Z,28.25
2019-04-20T18:19:27.547Z,28.47
2019-04-20T18:23:36.526Z,28.46
2019-04-20T18:27:57.473Z,28.64
2019-04-20T18:32:07.252Z,29.04
2019-04-20T18:36:23.703Z,29.31
2019-04-20T18:40:33.844Z,29.56
2019-04-20T18:44:55.682Z,30.01
2019-04-20T18:49:01.104Z,30.56
2019-04-20T18:52:49.785Z,31.22
2019-04-20T18:56:58.115Z,31.53
2019-04-20T19:01:07.524Z,31.59
2019-04-20T19:05:15.820Z,31.85
2019-04-20T19:09:27.153Z,31.96
2019-04-20T19:13:40.664Z,32.13
2019-04-20T19:18:18.310Z,32.40
2019-04-20T19:22:12.669Z,32.51
2019-04-20T19:26:21.522Z,32.69
2019-04-20T19:30:37.414Z,32.75
2019-04-20T19:34:54.653Z,33.14
2019-04-20T19:39:15.217Z,33.31
2019-04-20T19:43:23.424Z,33.46
2019-04-20T19:47:42.968Z,33.53
2019-04-20T19:52:04.235Z,33.41
2019-04-20T19:55:56.614Z,33.33
2019-04-20T19:59:56.114Z,33.48
2019-04-20T20:04:06.425Z,33.37
2019-04-20T20:08:19.310Z,33.40
2019-04-20T20:12:23.330Z,33.54
2019-04-20T20:16:52.670Z,33.94
2019-04-20T20:21:00.858Z,33.61
2019-04-20T20:24:54.906Z,33.77
2019-04-20T20:29:11.846Z,33.69
2019-04-20T20:33:27.824Z,33.94
2019-04-20T20:37:34.715Z,34.31
2019-04-20T20:41:45.017Z,34.26
2019-04-20T20:45:56.388Z,34.34
2019-04-20T20:50:15.551Z,34.46
2019-04-20T20:54:09.219Z,34.81
2019-04-20T20:58:14.969Z,34.81
2019-04-20T21:02:28.249Z,35.07
2019-04-20T21:06:29.054Z,35.42
2019-04-20T21:10:41.866Z,35.63
2019-04-20T21:14:46.815Z,35.78
2019-04-20T21:19:07.836Z,36.23
2019-04-20T21:23:17.516Z,36.30
2019-04-20T21:27:19.919Z,36.57
2019-04-20T21:31:27.847Z,36.71
2019-04-20T21:35:38.194Z,37.87
2019-04-20T21:39:46.474Z,37.58
2019-04-20T21:43:54.056Z,36.70
2019-04-20T21:48:11.497Z,36.74
2019-04-20T21:52:21.264Z,37.15
2019-04-20T21:56:21.931Z,37.08
2019-04-20T22:00:50.464Z,36.95
2019-04-20T22:04:57.554Z,37.59
2019-04-20T22:09:12.783Z,37.94
2019-04-20T22:13:27.920Z,37.80
2019-04-20T22:17:35.951Z,37.77
2019-04-20T22:21:54.364Z,38.40
2019-04-20T22:26:09.604Z,38.44
2019-04-20T22:30:08.241Z,37.96
2019-04-20T22:34:20.911Z,37.77
2019-04-20T22:38:45.116Z,38.12
2019-04-20T22:42:55.157Z,38.52
2019-04-20T22:47:00.579Z,37.67
2019-04-20T22:51:25.932Z,37.59
2019-04-20T22:55:42.730Z,37.59
2019-04-20T22:59:37.273Z,37.81
2019-04-20T23:03:33.018Z,37.77
2019-04-20T23:07:41.010Z,37.79
2019-04-20T23:11:47.791Z,38.00
2019-04-20T23:15:59.182Z,38.14
2019-04-20T23:20:03.742Z,38.15
2019-04-20T23:24:14.561Z,38.45
2019-04-20T23:28:22.426Z,38.42
2019-04-20T23:32:30.137Z,38.46
2019-04-20T23:36:41.674Z,38.61
2019-04-20T23:40:45.815Z,38.82
2019-04-20T23:45:03.710Z,39.00
2019-04-20T23:49:29.903Z,39.45
2019-04-20T23:53:48.098Z,39.34
2019-04-20T23:57:46.075Z,39.60
